Lynndyl, UT

2:34 PM MDT on May 04, 2015 (GMT -0600)
Oak City | | Change Station
CLOSE
Current Station
Personal Weather Station
Location: Oak City, UT
Elevation: 5066 ft
Nearby Weather Stations

Elev 5066 ft 39.38 °N, 112.34 °W | Updated 11 seconds ago

Partly Cloudy
Partly Cloudy
70.1 °F
Feels Like 76 °F
N
3.0
Wind Variable Wind from East
Gusts 4.0 mph

Today
High -- | Low -- °F
--% Chance of Precip.
Yesterday
High -- | Low -- °F
Precip. -- in
6:27 AM 8:26 PM
Waxing Gibbous, 99% visible
Pressure 29.90 in
Visibility 10.0 miles
Clouds Few 6000 ft
Scattered Clouds 8000 ft
Mostly Cloudy 25000 ft
Heat Index 76 °F
Dew Point 38 °F
Humidity 31%
Rainfall 0.00 in
Snow Depth Not available.
UV 6 out of 12
Pollen 7.80 out of 12
Air Quality Not available.
Flu Activity Regional
METAR KDPG 041955Z 15005KT 10SM FEW060 SCT080 BKN250 23/02 A2990 RMK DSNT VIRGA N-NE

More Conditions Fewer Conditions

Pressure 29.90 in
Visibility 10.0 miles
Clouds Few 6000 ft
Scattered Clouds 8000 ft
Mostly Cloudy 25000 ft
Heat Index 76 °F
Dew Point 38 °F
Humidity 31%
Rainfall 0.00 in
Snow Depth Not available.
UV 6 out of 12
Pollen 7.80 out of 12
Air Quality Not available.
Flu Activity Regional
METAR KDPG 041955Z 15005KT 10SM FEW060 SCT080 BKN250 23/02 A2990 RMK DSNT VIRGA N-NE

More Conditions Fewer Conditions

Nepal has a long way to go to dig out and rebuild from a devastating earthquake. We have teamed up with several charities and organizations to make contributing to the relief effort as easy as possible.
How you can help: Portlight Strategies | Red Cross
Nowcast | as of 2:10 PM MDT on May 4, 2015

Scattered showers and thunderstorms will continue to develop and drift to the northwest over central and southern Utah this afternoon. The strongest storms at 200 PM were located along the mountains east of Milford...just east of Newcastle...and southeast of Alton. Some of these storms will produce locally heavy rain...small hail...dangerous lightning...and gusty winds.

×

10-Day Weather Forecast

Almanac

Astronomy

May. 04, 2015 Rise Set
Actual Time
Civil Twilight
Nautical Twilight
Astronomical Twilight
Moon
Length of Visible Light
Length of Day
Tomorrow will be .
, % of the Moon is Illuminated

Today's Extremes

State Highs State Lows

Community

WunderPhotos

Upload Photos

1,818,686 photos uploaded!

WunderBlogs® & News

Nearby

Air Quality

  Air Quality AQ Index Pollutant
Not available.

Snow Depth

Station Depth Elevation

Earthquake Activity

City Distance Mag. Time & Date
Minimum magnitude displayed is 2.5.

Coastal Water Temperatures

Place Temperature

Stations

Nearby Weather Stations

Station Location Temp. Windchill Dew Point Humidity Wind Precip. Elev Updated Type